sensor_id;sensor_type;location;lat;lon;timestamp;pressure;altitude;pressure_sealevel;temperature;humidity
34696;BME280;75243;51.138;17.370;2024-03-02T00:00:26;99452.66;;;9.27;100.00
34696;BME280;75243;51.138;17.370;2024-03-02T00:03:27;99449.75;;;9.27;100.00
34696;BME280;75243;51.138;17.370;2024-03-02T00:06:27;99445.52;;;9.25;100.00
34696;BME280;75243;51.138;17.370;2024-03-02T00:09:29;99443.52;;;9.23;100.00
34696;BME280;75243;51.138;17.370;2024-03-02T00:12:29;99445.27;;;9.23;100.00
34696;BME280;75243;51.138;17.370;2024-03-02T00:15:47;99443.83;;;9.21;100.00
34696;BME280;75243;51.138;17.370;2024-03-02T00:18:50;99443.20;;;9.21;100.00
34696;BME280;75243;51.138;17.370;2024-03-02T00:21:50;99444.06;;;9.19;100.00
34696;BME280;75243;51.138;17.370;2024-03-02T00:24:51;99441.20;;;9.18;100.00
34696;BME280;75243;51.138;17.370;2024-03-02T00:27:51;99436.38;;;9.17;100.00
34696;BME280;75243;51.138;17.370;2024-03-02T00:30:57;99433.31;;;9.16;100.00
34696;BME280;75243;51.138;17.370;2024-03-02T00:33:59;99427.75;;;9.15;100.00
34696;BME280;75243;51.138;17.370;2024-03-02T00:37:01;99427.48;;;9.14;100.00
34696;BME280;75243;51.138;17.370;2024-03-02T00:40:02;99419.44;;;9.12;100.00
34696;BME280;75243;51.138;17.370;2024-03-02T00:43:04;99421.88;;;9.11;100.00
34696;BME280;75243;51.138;17.370;2024-03-02T00:46:05;99430.62;;;9.10;100.00
34696;BME280;75243;51.138;17.370;2024-03-02T00:52:14;99425.15;;;9.04;100.00
34696;BME280;75243;51.138;17.370;2024-03-02T00:55:15;99425.45;;;9.01;100.00
34696;BME280;75243;51.138;17.370;2024-03-02T00:58:15;99427.02;;;8.98;100.00
34696;BME280;75243;51.138;17.370;2024-03-02T01:01:16;99427.56;;;8.95;100.00
34696;BME280;75243;51.138;17.370;2024-03-02T01:04:16;99426.80;;;8.92;100.00
34696;BME280;75243;51.138;17.370;2024-03-02T01:07:17;99427.95;;;8.85;100.00
34696;BME280;75243;51.138;17.370;2024-03-02T01:10:17;99432.76;;;8.77;100.00
34696;BME280;75243;51.138;17.370;2024-03-02T01:13:18;99432.65;;;8.70;100.00
34696;BME280;75243;51.138;17.370;2024-03-02T01:16:18;99433.17;;;8.62;100.00
34696;BME280;75243;51.138;17.370;2024-03-02T01:19:19;99432.94;;;8.55;100.00
34696;BME280;75243;51.138;17.370;2024-03-02T01:22:19;99432.16;;;8.51;100.00
34696;BME280;75243;51.138;17.370;2024-03-02T01:25:25;99438.09;;;8.46;100.00
34696;BME280;75243;51.138;17.370;2024-03-02T01:28:25;99440.24;;;8.43;100.00
34696;BME280;75243;51.138;17.370;2024-03-02T01:31:26;99444.22;;;8.42;100.00
34696;BME280;75243;51.138;17.370;2024-03-02T01:34:27;99443.52;;;8.40;100.00
34696;BME280;75243;51.138;17.370;2024-03-02T01:37:27;99444.58;;;8.40;100.00
34696;BME280;75243;51.138;17.370;2024-03-02T01:40:28;99444.18;;;8.41;100.00
34696;BME280;75243;51.138;17.370;2024-03-02T01:43:28;99440.11;;;8.44;100.00
34696;BME280;75243;51.138;17.370;2024-03-02T01:46:29;99436.04;;;8.46;100.00
34696;BME280;75243;51.138;17.370;2024-03-02T01:49:29;99433.13;;;8.48;100.00
34696;BME280;75243;51.138;17.370;2024-03-02T01:52:30;99433.49;;;8.50;100.00
34696;BME280;75243;51.138;17.370;2024-03-02T01:55:30;99431.36;;;8.51;100.00
34696;BME280;75243;51.138;17.370;2024-03-02T01:58:31;99427.92;;;8.52;100.00
34696;BME280;75243;51.138;17.370;2024-03-02T02:01:32;99426.04;;;8.53;100.00
34696;BME280;75243;51.138;17.370;2024-03-02T02:04:34;99422.01;;;8.53;100.00
34696;BME280;75243;51.138;17.370;2024-03-02T02:07:35;99418.04;;;8.54;100.00
34696;BME280;75243;51.138;17.370;2024-03-02T02:10:36;99421.79;;;8.54;100.00
34696;BME280;75243;51.138;17.370;2024-03-02T02:13:36;99420.89;;;8.54;100.00
34696;BME280;75243;51.138;17.370;2024-03-02T02:16:37;99420.52;;;8.54;100.00
34696;BME280;75243;51.138;17.370;2024-03-02T02:19:40;99420.16;;;8.54;100.00
34696;BME280;75243;51.138;17.370;2024-03-02T02:23:01;99416.86;;;8.55;100.00
34696;BME280;75243;51.138;17.370;2024-03-02T02:26:02;99415.12;;;8.55;100.00
34696;BME280;75243;51.138;17.370;2024-03-02T02:29:04;99413.95;;;8.53;100.00
34696;BME280;75243;51.138;17.370;2024-03-02T02:32:05;99410.17;;;8.51;100.00
34696;BME280;75243;51.138;17.370;2024-03-02T02:35:06;99406.85;;;8.48;100.00
34696;BME280;75243;51.138;17.370;2024-03-02T02:38:06;99400.60;;;8.47;100.00
34696;BME280;75243;51.138;17.370;2024-03-02T02:41:07;99404.77;;;8.46;100.00
34696;BME280;75243;51.138;17.370;2024-03-02T02:44:07;99396.82;;;8.45;100.00
34696;BME280;75243;51.138;17.370;2024-03-02T02:47:08;99392.17;;;8.41;100.00
34696;BME280;75243;51.138;17.370;2024-03-02T02:50:09;99385.80;;;8.36;100.00
34696;BME280;75243;51.138;17.370;2024-03-02T02:53:10;99383.77;;;8.34;100.00
34696;BME280;75243;51.138;17.370;2024-03-02T02:56:11;99389.88;;;8.33;100.00
34696;BME280;75243;51.138;17.370;2024-03-02T02:59:11;99397.89;;;8.30;100.00
34696;BME280;75243;51.138;17.370;2024-03-02T03:02:12;99396.17;;;8.28;100.00
34696;BME280;75243;51.138;17.370;2024-03-02T03:05:13;99393.20;;;8.25;100.00
34696;BME280;75243;51.138;17.370;2024-03-02T03:08:17;99389.13;;;8.19;100.00
34696;BME280;75243;51.138;17.370;2024-03-02T03:11:18;99394.23;;;8.16;100.00
34696;BME280;75243;51.138;17.370;2024-03-02T03:14:18;99396.01;;;8.16;100.00
34696;BME280;75243;51.138;17.370;2024-03-02T03:17:21;99400.77;;;8.16;100.00
34696;BME280;75243;51.138;17.370;2024-03-02T03:20:21;99404.81;;;8.19;100.00
34696;BME280;75243;51.138;17.370;2024-03-02T03:23:23;99408.48;;;8.21;100.00
34696;BME280;75243;51.138;17.370;2024-03-02T03:26:24;99409.11;;;8.23;100.00
34696;BME280;75243;51.138;17.370;2024-03-02T03:29:24;99405.73;;;8.25;100.00
34696;BME280;75243;51.138;17.370;2024-03-02T03:32:25;99407.23;;;8.29;100.00
34696;BME280;75243;51.138;17.370;2024-03-02T03:35:25;99406.08;;;8.33;100.00
34696;BME280;75243;51.138;17.370;2024-03-02T03:38:26;99405.51;;;8.35;100.00
34696;BME280;75243;51.138;17.370;2024-03-02T03:41:26;99407.15;;;8.36;100.00
34696;BME280;75243;51.138;17.370;2024-03-02T03:44:27;99407.58;;;8.37;100.00
34696;BME280;75243;51.138;17.370;2024-03-02T03:47:27;99406.61;;;8.40;100.00
34696;BME280;75243;51.138;17.370;2024-03-02T03:50:28;99403.86;;;8.42;100.00
34696;BME280;75243;51.138;17.370;2024-03-02T03:53:29;99405.75;;;8.44;100.00
34696;BME280;75243;51.138;17.370;2024-03-02T03:56:29;99410.30;;;8.44;100.00
34696;BME280;75243;51.138;17.370;2024-03-02T03:59:29;99408.98;;;8.45;100.00
34696;BME280;75243;51.138;17.370;2024-03-02T04:02:30;99410.98;;;8.48;100.00
34696;BME280;75243;51.138;17.370;2024-03-02T04:05:31;99416.75;;;8.49;100.00
34696;BME280;75243;51.138;17.370;2024-03-02T04:08:31;99416.93;;;8.49;100.00
34696;BME280;75243;51.138;17.370;2024-03-02T04:11:32;99420.33;;;8.49;100.00
34696;BME280;75243;51.138;17.370;2024-03-02T04:14:33;99419.51;;;8.47;100.00
34696;BME280;75243;51.138;17.370;2024-03-02T04:17:33;99423.30;;;8.46;100.00
34696;BME280;75243;51.138;17.370;2024-03-02T04:20:36;99424.70;;;8.45;100.00
34696;BME280;75243;51.138;17.370;2024-03-02T04:23:37;99418.70;;;8.42;100.00
34696;BME280;75243;51.138;17.370;2024-03-02T04:26:37;99412.34;;;8.39;100.00
34696;BME280;75243;51.138;17.370;2024-03-02T04:29:38;99405.60;;;8.36;100.00
34696;BME280;75243;51.138;17.370;2024-03-02T04:32:38;99413.48;;;8.33;100.00
34696;BME280;75243;51.138;17.370;2024-03-02T04:35:39;99414.44;;;8.30;100.00
34696;BME280;75243;51.138;17.370;2024-03-02T04:38:40;99415.80;;;8.26;100.00
34696;BME280;75243;51.138;17.370;2024-03-02T04:41:40;99412.67;;;8.22;100.00
34696;BME280;75243;51.138;17.370;2024-03-02T04:44:41;99413.98;;;8.19;100.00
34696;BME280;75243;51.138;17.370;2024-03-02T04:47:41;99423.24;;;8.15;100.00
34696;BME280;75243;51.138;17.370;2024-03-02T04:50:42;99431.48;;;8.10;100.00
34696;BME280;75243;51.138;17.370;2024-03-02T04:53:42;99432.28;;;8.06;100.00
34696;BME280;75243;51.138;17.370;2024-03-02T04:56:43;99433.29;;;8.03;100.00
34696;BME280;75243;51.138;17.370;2024-03-02T04:59:44;99431.35;;;8.03;100.00
34696;BME280;75243;51.138;17.370;2024-03-02T05:02:45;99436.35;;;8.01;100.00
34696;BME280;75243;51.138;17.370;2024-03-02T05:05:45;99438.14;;;7.98;100.00
34696;BME280;75243;51.138;17.370;2024-03-02T05:08:47;99437.09;;;7.97;100.00
34696;BME280;75243;51.138;17.370;2024-03-02T05:11:48;99436.79;;;7.92;100.00
34696;BME280;75243;51.138;17.370;2024-03-02T05:15:10;99444.17;;;7.86;100.00
34696;BME280;75243;51.138;17.370;2024-03-02T05:18:10;99440.89;;;7.80;100.00
34696;BME280;75243;51.138;17.370;2024-03-02T05:21:11;99439.65;;;7.77;100.00
34696;BME280;75243;51.138;17.370;2024-03-02T05:24:11;99439.71;;;7.76;100.00
34696;BME280;75243;51.138;17.370;2024-03-02T05:27:12;99440.16;;;7.75;100.00
34696;BME280;75243;51.138;17.370;2024-03-02T05:30:15;99441.50;;;7.75;100.00
34696;BME280;75243;51.138;17.370;2024-03-02T05:33:16;99450.36;;;7.74;100.00
34696;BME280;75243;51.138;17.370;2024-03-02T05:36:16;99453.10;;;7.73;100.00
34696;BME280;75243;51.138;17.370;2024-03-02T05:39:17;99453.54;;;7.72;100.00
34696;BME280;75243;51.138;17.370;2024-03-02T05:42:17;99451.40;;;7.73;100.00
34696;BME280;75243;51.138;17.370;2024-03-02T05:45:19;99448.92;;;7.71;100.00
34696;BME280;75243;51.138;17.370;2024-03-02T05:48:19;99452.33;;;7.69;100.00
34696;BME280;75243;51.138;17.370;2024-03-02T05:51:20;99449.31;;;7.67;100.00
34696;BME280;75243;51.138;17.370;2024-03-02T05:54:20;99452.38;;;7.67;100.00
34696;BME280;75243;51.138;17.370;2024-03-02T05:57:21;99451.78;;;7.68;100.00
34696;BME280;75243;51.138;17.370;2024-03-02T06:00:49;99456.86;;;7.66;100.00
34696;BME280;75243;51.138;17.370;2024-03-02T06:03:50;99459.09;;;7.67;100.00
34696;BME280;75243;51.138;17.370;2024-03-02T06:06:50;99456.21;;;7.69;100.00
34696;BME280;75243;51.138;17.370;2024-03-02T06:09:56;99461.12;;;7.71;100.00
34696;BME280;75243;51.138;17.370;2024-03-02T06:12:56;99469.54;;;7.71;100.00
34696;BME280;75243;51.138;17.370;2024-03-02T06:15:59;99478.48;;;7.73;100.00
34696;BME280;75243;51.138;17.370;2024-03-02T06:19:00;99479.61;;;7.72;100.00
34696;BME280;75243;51.138;17.370;2024-03-02T06:22:04;99482.05;;;7.74;100.00
34696;BME280;75243;51.138;17.370;2024-03-02T06:25:07;99476.75;;;7.79;100.00
34696;BME280;75243;51.138;17.370;2024-03-02T06:28:12;99479.85;;;7.88;100.00
34696;BME280;75243;51.138;17.370;2024-03-02T06:31:15;99483.75;;;7.96;100.00
34696;BME280;75243;51.138;17.370;2024-03-02T06:34:16;99486.16;;;8.03;100.00
34696;BME280;75243;51.138;17.370;2024-03-02T06:37:17;99492.93;;;8.10;100.00
34696;BME280;75243;51.138;17.370;2024-03-02T06:40:18;99496.16;;;8.15;100.00
34696;BME280;75243;51.138;17.370;2024-03-02T06:43:19;99498.25;;;8.19;100.00
34696;BME280;75243;51.138;17.370;2024-03-02T06:46:23;99500.36;;;8.22;100.00
34696;BME280;75243;51.138;17.370;2024-03-02T06:49:24;99500.64;;;8.27;100.00
34696;BME280;75243;51.138;17.370;2024-03-02T06:52:24;99501.30;;;8.34;100.00
34696;BME280;75243;51.138;17.370;2024-03-02T06:55:25;99502.51;;;8.43;100.00
34696;BME280;75243;51.138;17.370;2024-03-02T06:58:25;99501.63;;;8.54;100.00
34696;BME280;75243;51.138;17.370;2024-03-02T07:01:26;99503.82;;;8.68;100.00
34696;BME280;75243;51.138;17.370;2024-03-02T07:04:26;99501.65;;;8.84;100.00
34696;BME280;75243;51.138;17.370;2024-03-02T07:07:27;99504.80;;;8.98;100.00
34696;BME280;75243;51.138;17.370;2024-03-02T07:10:30;99506.77;;;9.07;100.00
34696;BME280;75243;51.138;17.370;2024-03-02T07:13:32;99505.82;;;9.10;100.00
34696;BME280;75243;51.138;17.370;2024-03-02T07:16:32;99505.77;;;9.12;100.00
34696;BME280;75243;51.138;17.370;2024-03-02T07:19:34;99510.83;;;9.12;99.99
34696;BME280;75243;51.138;17.370;2024-03-02T07:22:35;99512.49;;;9.18;100.00
34696;BME280;75243;51.138;17.370;2024-03-02T07:25:37;99515.14;;;9.27;100.00
34696;BME280;75243;51.138;17.370;2024-03-02T07:28:40;99516.13;;;9.40;100.00
34696;BME280;75243;51.138;17.370;2024-03-02T07:31:41;99515.13;;;9.53;100.00
34696;BME280;75243;51.138;17.370;2024-03-02T07:34:41;99516.51;;;9.67;99.89
34696;BME280;75243;51.138;17.370;2024-03-02T07:37:42;99526.80;;;9.89;99.88
34696;BME280;75243;51.138;17.370;2024-03-02T07:40:43;99531.48;;;9.97;98.85
34696;BME280;75243;51.138;17.370;2024-03-02T07:43:44;99534.20;;;9.99;98.53
34696;BME280;75243;51.138;17.370;2024-03-02T07:46:45;99539.91;;;10.03;98.36
34696;BME280;75243;51.138;17.370;2024-03-02T07:49:47;99543.37;;;10.05;97.61
34696;BME280;75243;51.138;17.370;2024-03-02T07:52:47;99549.39;;;10.06;97.68
34696;BME280;75243;51.138;17.370;2024-03-02T07:55:51;99552.63;;;10.15;97.55
34696;BME280;75243;51.138;17.370;2024-03-02T07:58:52;99551.14;;;10.42;98.06
34696;BME280;75243;51.138;17.370;2024-03-02T08:01:52;99548.01;;;10.97;98.74
34696;BME280;75243;51.138;17.370;2024-03-02T08:04:55;99543.51;;;11.44;97.78
34696;BME280;75243;51.138;17.370;2024-03-02T08:07:56;99539.34;;;11.77;95.00
34696;BME280;75243;51.138;17.370;2024-03-02T08:10:56;99539.16;;;12.00;93.63
34696;BME280;75243;51.138;17.370;2024-03-02T08:13:57;99534.45;;;12.23;92.41
34696;BME280;75243;51.138;17.370;2024-03-02T08:16:57;99530.86;;;12.44;92.17
34696;BME280;75243;51.138;17.370;2024-03-02T08:19:58;99528.71;;;12.63;90.09
34696;BME280;75243;51.138;17.370;2024-03-02T08:22:59;99533.42;;;12.70;88.86
34696;BME280;75243;51.138;17.370;2024-03-02T08:25:59;99530.48;;;12.85;89.69
34696;BME280;75243;51.138;17.370;2024-03-02T08:29:04;99529.90;;;13.04;87.96
34696;BME280;75243;51.138;17.370;2024-03-02T08:32:05;99531.64;;;13.23;87.83
34696;BME280;75243;51.138;17.370;2024-03-02T08:35:06;99530.52;;;13.40;85.92
34696;BME280;75243;51.138;17.370;2024-03-02T08:38:07;99533.27;;;13.45;84.20
34696;BME280;75243;51.138;17.370;2024-03-02T08:41:07;99519.64;;;13.42;82.79
34696;BME280;75243;51.138;17.370;2024-03-02T08:44:09;99521.89;;;13.38;83.25
34696;BME280;75243;51.138;17.370;2024-03-02T08:47:09;99522.02;;;13.26;82.73
34696;BME280;75243;51.138;17.370;2024-03-02T08:50:12;99518.52;;;13.08;82.23
34696;BME280;75243;51.138;17.370;2024-03-02T08:53:13;99520.36;;;12.91;82.46
34696;BME280;75243;51.138;17.370;2024-03-02T08:56:21;99526.65;;;12.83;82.78
34696;BME280;75243;51.138;17.370;2024-03-02T08:59:24;99527.59;;;12.97;83.95
34696;BME280;75243;51.138;17.370;2024-03-02T09:02:25;99524.98;;;13.23;83.56
34696;BME280;75243;51.138;17.370;2024-03-02T09:05:26;99521.56;;;13.41;82.95
34696;BME280;75243;51.138;17.370;2024-03-02T09:08:26;99525.81;;;13.61;82.54
34696;BME280;75243;51.138;17.370;2024-03-02T09:11:27;99523.70;;;13.71;80.33
34696;BME280;75243;51.138;17.370;2024-03-02T09:14:27;99520.58;;;13.78;80.31
34696;BME280;75243;51.138;17.370;2024-03-02T09:17:29;99524.63;;;13.81;79.81
34696;BME280;75243;51.138;17.370;2024-03-02T09:20:29;99529.81;;;13.74;78.04
34696;BME280;75243;51.138;17.370;2024-03-02T09:23:30;99529.29;;;13.62;78.38
34696;BME280;75243;51.138;17.370;2024-03-02T09:26:31;99529.11;;;13.54;78.17
34696;BME280;75243;51.138;17.370;2024-03-02T09:29:32;99530.26;;;13.42;78.52
34696;BME280;75243;51.138;17.370;2024-03-02T09:32:32;99535.78;;;13.30;78.26
34696;BME280;75243;51.138;17.370;2024-03-02T09:35:33;99533.88;;;13.14;78.37
34696;BME280;75243;51.138;17.370;2024-03-02T09:38:33;99530.22;;;13.03;78.52
34696;BME280;75243;51.138;17.370;2024-03-02T09:41:34;99523.96;;;12.96;78.74
34696;BME280;75243;51.138;17.370;2024-03-02T09:44:37;99522.11;;;12.90;78.73
34696;BME280;75243;51.138;17.370;2024-03-02T09:47:40;99522.17;;;12.86;78.87
34696;BME280;75243;51.138;17.370;2024-03-02T09:50:41;99522.88;;;12.86;78.88
34696;BME280;75243;51.138;17.370;2024-03-02T09:53:42;99522.61;;;12.90;79.30
34696;BME280;75243;51.138;17.370;2024-03-02T09:56:44;99524.40;;;12.95;78.64
34696;BME280;75243;51.138;17.370;2024-03-02T09:59:44;99527.60;;;12.96;78.51
34696;BME280;75243;51.138;17.370;2024-03-02T10:02:45;99522.48;;;13.03;78.27
34696;BME280;75243;51.138;17.370;2024-03-02T10:05:51;99522.25;;;13.08;77.98
34696;BME280;75243;51.138;17.370;2024-03-02T10:08:52;99523.58;;;13.10;77.54
34696;BME280;75243;51.138;17.370;2024-03-02T10:11:53;99524.25;;;13.16;78.01
34696;BME280;75243;51.138;17.370;2024-03-02T10:15:06;99517.86;;;13.16;76.41
34696;BME280;75243;51.138;17.370;2024-03-02T10:18:12;99516.94;;;13.09;75.69
34696;BME280;75243;51.138;17.370;2024-03-02T10:21:16;99518.31;;;13.08;75.71
34696;BME280;75243;51.138;17.370;2024-03-02T10:24:17;99515.54;;;13.09;75.22
34696;BME280;75243;51.138;17.370;2024-03-02T10:27:23;99511.14;;;13.06;75.29
34696;BME280;75243;51.138;17.370;2024-03-02T10:30:35;99508.42;;;13.12;75.29
34696;BME280;75243;51.138;17.370;2024-03-02T10:33:41;99506.60;;;13.18;75.51
34696;BME280;75243;51.138;17.370;2024-03-02T10:36:43;99502.41;;;13.24;75.00
34696;BME280;75243;51.138;17.370;2024-03-02T10:39:46;99505.66;;;13.31;74.98
34696;BME280;75243;51.138;17.370;2024-03-02T10:42:46;99502.86;;;13.37;75.05
34696;BME280;75243;51.138;17.370;2024-03-02T10:45:49;99507.31;;;13.47;75.04
34696;BME280;75243;51.138;17.370;2024-03-02T10:48:51;99506.27;;;13.56;74.92
34696;BME280;75243;51.138;17.370;2024-03-02T10:51:55;99502.56;;;13.67;74.55
34696;BME280;75243;51.138;17.370;2024-03-02T10:54:55;99500.24;;;13.72;74.28
34696;BME280;75243;51.138;17.370;2024-03-02T10:57:58;99502.77;;;13.84;75.00
34696;BME280;75243;51.138;17.370;2024-03-02T11:01:02;99503.11;;;13.98;74.74
34696;BME280;75243;51.138;17.370;2024-03-02T11:04:04;99501.81;;;14.06;73.91
34696;BME280;75243;51.138;17.370;2024-03-02T11:07:12;99498.08;;;14.08;73.44
34696;BME280;75243;51.138;17.370;2024-03-02T11:10:17;99500.79;;;14.16;74.00
34696;BME280;75243;51.138;17.370;2024-03-02T11:13:20;99497.88;;;14.33;74.43
34696;BME280;75243;51.138;17.370;2024-03-02T11:16:32;99497.00;;;14.46;74.46
34696;BME280;75243;51.138;17.370;2024-03-02T11:19:38;99494.83;;;14.48;72.81
34696;BME280;75243;51.138;17.370;2024-03-02T11:22:41;99495.32;;;14.41;72.36
34696;BME280;75243;51.138;17.370;2024-03-02T11:25:42;99499.55;;;14.40;73.55
34696;BME280;75243;51.138;17.370;2024-03-02T11:28:44;99497.20;;;14.41;73.45
34696;BME280;75243;51.138;17.370;2024-03-02T11:31:58;99493.52;;;14.39;73.17
34696;BME280;75243;51.138;17.370;2024-03-02T11:35:02;99488.21;;;14.37;72.50
34696;BME280;75243;51.138;17.370;2024-03-02T11:38:03;99491.17;;;14.32;72.18
34696;BME280;75243;51.138;17.370;2024-03-02T11:41:07;99486.42;;;14.30;72.79
34696;BME280;75243;51.138;17.370;2024-03-02T11:44:12;99491.51;;;14.32;71.46
34696;BME280;75243;51.138;17.370;2024-03-02T11:47:14;99492.24;;;14.29;71.61
34696;BME280;75243;51.138;17.370;2024-03-02T11:50:30;99493.64;;;14.27;71.18
34696;BME280;75243;51.138;17.370;2024-03-02T11:53:31;99496.27;;;14.25;71.86
34696;BME280;75243;51.138;17.370;2024-03-02T11:56:37;99495.98;;;14.26;71.70
34696;BME280;75243;51.138;17.370;2024-03-02T11:59:38;99496.27;;;14.19;69.73
34696;BME280;75243;51.138;17.370;2024-03-02T12:02:38;99496.39;;;14.13;69.42
34696;BME280;75243;51.138;17.370;2024-03-02T12:05:42;99496.92;;;14.08;69.65
34696;BME280;75243;51.138;17.370;2024-03-02T12:08:44;99497.49;;;14.06;70.12
34696;BME280;75243;51.138;17.370;2024-03-02T12:11:45;99495.27;;;14.05;70.21
34696;BME280;75243;51.138;17.370;2024-03-02T12:14:52;99493.89;;;14.09;70.76
34696;BME280;75243;51.138;17.370;2024-03-02T12:17:59;99489.54;;;14.10;70.10
34696;BME280;75243;51.138;17.370;2024-03-02T12:21:00;99485.73;;;14.08;69.73
34696;BME280;75243;51.138;17.370;2024-03-02T12:24:03;99485.11;;;14.07;69.82
34696;BME280;75243;51.138;17.370;2024-03-02T12:27:07;99484.23;;;14.10;70.02
34696;BME280;75243;51.138;17.370;2024-03-02T12:30:08;99482.98;;;14.12;70.06
34696;BME280;75243;51.138;17.370;2024-03-02T12:33:14;99477.27;;;14.16;69.30
34696;BME280;75243;51.138;17.370;2024-03-02T12:36:14;99480.42;;;14.16;69.21
34696;BME280;75243;51.138;17.370;2024-03-02T12:39:16;99475.50;;;14.18;69.15
34696;BME280;75243;51.138;17.370;2024-03-02T12:42:17;99475.42;;;14.21;69.52
34696;BME280;75243;51.138;17.370;2024-03-02T12:45:20;99470.20;;;14.23;68.94
34696;BME280;75243;51.138;17.370;2024-03-02T12:48:25;99467.49;;;14.22;68.94
34696;BME280;75243;51.138;17.370;2024-03-02T12:51:27;99469.30;;;14.24;69.16
34696;BME280;75243;51.138;17.370;2024-03-02T12:54:27;99469.22;;;14.27;68.36
34696;BME280;75243;51.138;17.370;2024-03-02T12:57:28;99471.31;;;14.24;68.31
34696;BME280;75243;51.138;17.370;2024-03-02T13:00:29;99470.36;;;14.25;68.91
34696;BME280;75243;51.138;17.370;2024-03-02T13:03:36;99471.23;;;14.28;68.74
34696;BME280;75243;51.138;17.370;2024-03-02T13:06:36;99472.61;;;14.35;69.32
34696;BME280;75243;51.138;17.370;2024-03-02T13:09:38;99472.54;;;14.40;68.67
34696;BME280;75243;51.138;17.370;2024-03-02T13:12:39;99468.22;;;14.40;68.56
34696;BME280;75243;51.138;17.370;2024-03-02T13:15:39;99463.46;;;14.40;69.21
34696;BME280;75243;51.138;17.370;2024-03-02T13:18:40;99463.34;;;14.40;68.29
34696;BME280;75243;51.138;17.370;2024-03-02T13:21:40;99462.57;;;14.31;68.47
34696;BME280;75243;51.138;17.370;2024-03-02T13:24:44;99462.48;;;14.26;68.63
34696;BME280;75243;51.138;17.370;2024-03-02T13:27:45;99460.30;;;14.26;69.08
34696;BME280;75243;51.138;17.370;2024-03-02T13:30:45;99456.48;;;14.27;69.02
34696;BME280;75243;51.138;17.370;2024-03-02T13:33:46;99459.80;;;14.24;68.75
34696;BME280;75243;51.138;17.370;2024-03-02T13:36:47;99459.12;;;14.19;68.57
34696;BME280;75243;51.138;17.370;2024-03-02T13:39:47;99460.80;;;14.12;68.65
34696;BME280;75243;51.138;17.370;2024-03-02T13:42:48;99460.98;;;14.08;69.25
34696;BME280;75243;51.138;17.370;2024-03-02T13:45:51;99464.99;;;14.10;69.63
34696;BME280;75243;51.138;17.370;2024-03-02T13:48:52;99465.27;;;14.12;69.69
34696;BME280;75243;51.138;17.370;2024-03-02T13:52:00;99471.02;;;14.09;69.96
34696;BME280;75243;51.138;17.370;2024-03-02T13:55:03;99477.35;;;14.04;70.04
34696;BME280;75243;51.138;17.370;2024-03-02T13:58:04;99480.59;;;13.97;70.27
34696;BME280;75243;51.138;17.370;2024-03-02T14:01:05;99480.73;;;13.95;70.61
34696;BME280;75243;51.138;17.370;2024-03-02T14:04:05;99486.92;;;13.94;70.82
34696;BME280;75243;51.138;17.370;2024-03-02T14:07:06;99485.71;;;13.92;70.98
34696;BME280;75243;51.138;17.370;2024-03-02T14:10:08;99488.62;;;13.90;71.21
34696;BME280;75243;51.138;17.370;2024-03-02T14:13:09;99490.23;;;13.87;71.31
34696;BME280;75243;51.138;17.370;2024-03-02T14:16:10;99486.81;;;13.84;71.50
34696;BME280;75243;51.138;17.370;2024-03-02T14:19:14;99486.30;;;13.82;71.71
34696;BME280;75243;51.138;17.370;2024-03-02T14:22:20;99486.02;;;13.79;71.83
34696;BME280;75243;51.138;17.370;2024-03-02T14:25:21;99487.33;;;13.72;71.95
34696;BME280;75243;51.138;17.370;2024-03-02T14:28:25;99486.08;;;13.62;71.96
34696;BME280;75243;51.138;17.370;2024-03-02T14:31:25;99485.52;;;13.53;72.20
34696;BME280;75243;51.138;17.370;2024-03-02T14:34:26;99489.98;;;13.49;72.43
34696;BME280;75243;51.138;17.370;2024-03-02T14:37:26;99492.10;;;13.46;72.86
34696;BME280;75243;51.138;17.370;2024-03-02T14:40:27;99489.91;;;13.42;72.95
34696;BME280;75243;51.138;17.370;2024-03-02T14:43:29;99487.98;;;13.38;73.09
34696;BME280;75243;51.138;17.370;2024-03-02T14:46:33;99486.82;;;13.35;73.35
34696;BME280;75243;51.138;17.370;2024-03-02T14:49:34;99484.69;;;13.32;73.45
34696;BME280;75243;51.138;17.370;2024-03-02T14:52:40;99482.23;;;13.28;73.47
34696;BME280;75243;51.138;17.370;2024-03-02T14:55:40;99483.67;;;13.22;73.55
34696;BME280;75243;51.138;17.370;2024-03-02T14:58:41;99482.22;;;13.19;73.71
34696;BME280;75243;51.138;17.370;2024-03-02T15:01:41;99481.77;;;13.17;74.03
34696;BME280;75243;51.138;17.370;2024-03-02T15:04:42;99478.86;;;13.15;74.12
34696;BME280;75243;51.138;17.370;2024-03-02T15:07:47;99478.59;;;13.13;74.14
34696;BME280;75243;51.138;17.370;2024-03-02T15:10:47;99479.94;;;13.10;73.62
34696;BME280;75243;51.138;17.370;2024-03-02T15:13:48;99483.91;;;13.04;73.87
34696;BME280;75243;51.138;17.370;2024-03-02T15:16:53;99480.61;;;12.97;74.04
34696;BME280;75243;51.138;17.370;2024-03-02T15:19:56;99481.05;;;12.93;74.09
34696;BME280;75243;51.138;17.370;2024-03-02T15:22:57;99485.04;;;12.88;74.31
34696;BME280;75243;51.138;17.370;2024-03-02T15:25:58;99486.00;;;12.84;74.31
34696;BME280;75243;51.138;17.370;2024-03-02T15:29:01;99485.46;;;12.76;74.44
34696;BME280;75243;51.138;17.370;2024-03-02T15:32:02;99483.50;;;12.69;74.40
34696;BME280;75243;51.138;17.370;2024-03-02T15:35:06;99482.56;;;12.63;74.58
34696;BME280;75243;51.138;17.370;2024-03-02T15:38:06;99479.83;;;12.58;74.73
34696;BME280;75243;51.138;17.370;2024-03-02T15:41:09;99483.62;;;12.56;74.77
34696;BME280;75243;51.138;17.370;2024-03-02T15:44:10;99484.61;;;12.52;74.79
34696;BME280;75243;51.138;17.370;2024-03-02T15:47:11;99481.89;;;12.50;74.85
34696;BME280;75243;51.138;17.370;2024-03-02T15:50:11;99482.79;;;12.47;74.89
34696;BME280;75243;51.138;17.370;2024-03-02T15:53:13;99478.46;;;12.42;75.03